Time;durP1;ratioP1;P1;durP2;ratioP2;P2;SDS_P1;SDS_P2;PMS_P1;PMS_P2;Temp;Humidity;BMP_temperature;BMP_pressure;BME280_temperature;BME280_humidity;BME280_pressure;Samples;Min_cycle;Max_cycle;Signal;HPM_P1;HPM_P2
2023/12/04 00:01:50;;;;;;;5.37;3.13;;;-3.40;99.90;;;;;;5053848;28;20490;-81
2023/12/04 00:04:16;;;;;;;7.38;3.28;;;-3.40;99.90;;;;;;5065868;28;20189;-82
2023/12/04 00:06:42;;;;;;;16.87;4.50;;;-3.40;99.90;;;;;;5054636;28;20188;-82
2023/12/04 00:09:07;;;;;;;2.60;2.40;;;-3.40;99.90;;;;;;5057104;28;20199;-83
2023/12/04 00:11:33;;;;;;;3.03;2.83;;;-3.40;99.90;;;;;;5074334;28;20204;-83
2023/12/04 00:13:59;;;;;;;8.13;4.07;;;-3.40;99.90;;;;;;5057688;28;20193;-83
2023/12/04 00:16:25;;;;;;;19.33;5.15;;;-3.40;99.90;;;;;;5083966;28;20191;-84
2023/12/04 00:18:53;;;;;;;5.03;3.20;;;-3.40;99.90;;;;;;5075331;28;20230;-82
2023/12/04 00:21:18;;;;;;;1.77;1.40;;;-3.40;99.90;;;;;;5064838;28;20454;-82
2023/12/04 00:23:44;;;;;;;4.80;2.33;;;-3.50;99.90;;;;;;5058064;28;20184;-85
2023/12/04 00:26:09;;;;;;;6.47;3.40;;;-3.50;99.90;;;;;;5058767;28;20912;-86
2023/12/04 00:28:38;;;;;;;3.50;3.20;;;-3.50;99.90;;;;;;5072541;28;20184;-84
2023/12/04 00:31:04;;;;;;;2.60;2.40;;;-3.60;99.90;;;;;;5078985;28;20771;-81
2023/12/04 00:33:30;;;;;;;3.92;3.20;;;-3.60;99.90;;;;;;5065525;28;20187;-84
2023/12/04 00:35:57;;;;;;;5.57;1.83;;;-3.70;99.90;;;;;;5077188;28;20180;-85
2023/12/04 00:38:22;;;;;;;1.67;1.50;;;-3.70;99.90;;;;;;5066530;28;20247;-84
2023/12/04 00:40:48;;;;;;;1.70;1.17;;;-3.70;99.90;;;;;;5064394;28;20201;-83
2023/12/04 00:43:13;;;;;;;6.57;1.60;;;-3.80;99.90;;;;;;5082332;28;20196;-82
2023/12/04 00:45:39;;;;;;;6.80;3.40;;;-3.80;99.90;;;;;;5071109;28;20269;-83
2023/12/04 00:48:05;;;;;;;6.70;4.10;;;-3.80;99.90;;;;;;5075564;28;20210;-83
2023/12/04 00:50:30;;;;;;;1.93;1.83;;;-3.80;99.90;;;;;;5047918;28;20823;-85
2023/12/04 00:52:56;;;;;;;9.70;3.20;;;-3.70;99.90;;;;;;5075217;28;20207;-84
2023/12/04 00:55:22;;;;;;;2.73;2.40;;;;;;;;;;5064931;28;20188;-82
2023/12/04 00:57:47;;;;;;;7.13;2.90;;;-3.90;99.90;;;;;;5060855;28;20216;-84
2023/12/04 01:00:13;;;;;;;10.50;3.83;;;-3.90;99.90;;;;;;5074643;28;20492;-83
2023/12/04 01:02:40;;;;;;;7.15;4.97;;;-3.80;99.90;;;;;;5059490;28;20184;-84
2023/12/04 01:05:06;;;;;;;6.28;4.05;;;-3.60;99.90;;;;;;5060932;28;20203;-84
2023/12/04 01:07:32;;;;;;;4.57;1.47;;;;;;;;;;5046184;28;20192;-84
2023/12/04 01:09:58;;;;;;;2.90;2.70;;;;;;;;;;5056127;28;20432;-82
2023/12/04 01:12:23;;;;;;;8.70;4.13;;;-3.50;99.90;;;;;;5068374;28;20483;-83
2023/12/04 01:14:49;;;;;;;5.07;4.17;;;;;;;;;;5060872;28;20547;-83
2023/12/04 01:17:15;;;;;;;9.43;5.17;;;-3.60;99.90;;;;;;5042104;28;20211;-83
2023/12/04 01:19:41;;;;;;;6.27;2.10;;;;;;;;;;5055802;28;20486;-84
2023/12/04 01:22:07;;;;;;;7.53;2.73;;;-3.70;99.90;;;;;;5054957;28;20180;-86
2023/12/04 01:24:32;;;;;;;3.77;2.03;;;-3.70;99.90;;;;;;5058207;28;20487;-83
2023/12/04 01:26:59;;;;;;;6.17;4.27;;;;;;;;;;5048138;28;20539;-84
2023/12/04 01:29:24;;;;;;;5.90;1.75;;;-3.80;99.90;;;;;;5071371;28;20164;-81
2023/12/04 01:31:50;;;;;;;1.87;1.77;;;-3.10;99.90;;;;;;5063219;28;20281;-83
2023/12/04 01:34:15;;;;;;;12.00;4.93;;;-3.70;99.90;;;;;;5071424;28;20281;-82
2023/12/04 01:36:41;;;;;;;2.63;2.40;;;-3.60;99.90;;;;;;5067889;28;20795;-83
2023/12/04 01:39:07;;;;;;;9.43;4.97;;;-3.60;99.90;;;;;;5063405;28;20183;-84
2023/12/04 01:41:33;;;;;;;2.20;1.70;;;;;;;;;;5051159;28;20453;-82
2023/12/04 01:43:58;;;;;;;1.50;1.40;;;-3.40;99.90;;;;;;5071996;28;20208;-81
2023/12/04 01:46:24;;;;;;;7.77;2.73;;;-3.50;99.90;;;;;;5066333;28;20928;-83
2023/12/04 01:48:50;;;;;;;3.50;2.73;;;-3.50;99.90;;;;;;5054469;28;20190;-84
2023/12/04 01:51:18;;;;;;;9.13;2.47;;;-3.40;99.90;;;;;;5075127;28;20489;-83
2023/12/04 01:53:44;;;;;;;6.63;2.60;;;-3.40;99.90;;;;;;5075102;28;20192;-86
2023/12/04 01:56:10;;;;;;;10.07;2.95;;;-3.40;99.90;;;;;;5045499;28;20256;-84
2023/12/04 01:58:37;;;;;;;3.80;1.60;;;-3.40;99.90;;;;;;5062102;28;20281;-84
2023/12/04 02:01:04;;;;;;;2.33;2.15;;;-3.40;99.90;;;;;;5065541;28;20209;-84
2023/12/04 02:03:30;;;;;;;10.43;6.00;;;-3.40;99.90;;;;;;5068044;28;21071;-85
2023/12/04 02:05:59;;;;;;;5.60;3.80;;;-3.50;99.90;;;;;;5048346;28;20180;-82
2023/12/04 02:08:25;;;;;;;5.63;3.55;;;-3.50;99.90;;;;;;5055587;28;20435;-83
2023/12/04 02:10:50;;;;;;;16.83;3.22;;;-3.40;99.90;;;;;;5071896;28;20291;-83
2023/12/04 02:13:16;;;;;;;8.80;2.10;;;-3.40;99.90;;;;;;5071698;28;20260;-84
2023/12/04 02:15:42;;;;;;;1.57;1.47;;;-3.50;99.90;;;;;;5050252;28;20211;-83
2023/12/04 02:18:08;;;;;;;2.23;2.10;;;-3.40;99.90;;;;;;5069399;28;20470;-81
2023/12/04 02:20:34;;;;;;;7.30;3.47;;;-3.50;99.90;;;;;;5086316;28;20233;-83
2023/12/04 02:23:01;;;;;;;1.25;1.15;;;-3.50;99.90;;;;;;5070724;28;20935;-82
2023/12/04 02:25:27;;;;;;;4.53;2.50;;;-3.50;99.90;;;;;;5043521;28;20278;-83
2023/12/04 02:27:55;;;;;;;6.93;3.40;;;-3.50;99.90;;;;;;5055989;28;20194;-83
2023/12/04 02:30:24;;;;;;;4.80;2.72;;;-3.50;99.90;;;;;;5060230;28;20272;-83
2023/12/04 02:32:51;;;;;;;2.50;2.30;;;-3.50;99.90;;;;;;5075016;28;20253;-84
2023/12/04 02:35:22;;;;;;;1.98;1.25;;;-3.50;99.90;;;;;;5053950;28;20257;-82
2023/12/04 02:37:48;;;;;;;2.25;1.45;;;-3.50;99.90;;;;;;5069496;28;20223;-85
2023/12/04 02:40:14;;;;;;;18.88;2.60;;;-3.50;99.90;;;;;;5069824;28;20211;-82
2023/12/04 02:42:40;;;;;;;4.63;2.60;;;-3.50;99.90;;;;;;5075635;28;20246;-83
2023/12/04 02:45:06;;;;;;;5.33;1.83;;;-3.50;99.90;;;;;;5088121;28;20462;-85
2023/12/04 02:47:31;;;;;;;6.20;1.77;;;-3.40;99.90;;;;;;5073834;28;20421;-86
2023/12/04 02:49:57;;;;;;;4.13;1.83;;;-3.40;99.90;;;;;;5077066;28;20274;-82
2023/12/04 02:52:23;;;;;;;11.50;5.47;;;;;;;;;;5072653;28;20717;-85
2023/12/04 02:54:49;;;;;;;2.50;1.47;;;;;;;;;;5053915;28;20216;-82
2023/12/04 02:57:15;;;;;;;4.10;1.33;;;-3.30;99.90;;;;;;5064201;28;20466;-85
2023/12/04 02:59:40;;;;;;;5.13;2.33;;;-3.30;99.90;;;;;;5077227;28;20443;-82
2023/12/04 03:02:06;;;;;;;0.67;0.67;;;-3.20;99.90;;;;;;5064975;28;21048;-83
2023/12/04 03:04:32;;;;;;;3.13;2.83;;;-3.30;99.90;;;;;;5064859;28;20193;-83
2023/12/04 03:06:57;;;;;;;8.80;1.52;;;-3.20;99.90;;;;;;5071108;28;20196;-83
2023/12/04 03:09:23;;;;;;;1.83;1.50;;;;;;;;;;5060439;28;20192;-83
2023/12/04 03:11:49;;;;;;;5.00;1.50;;;-3.20;99.90;;;;;;5049061;28;20220;-84
2023/12/04 03:14:14;;;;;;;3.03;1.63;;;-3.20;99.90;;;;;;5052869;28;20449;-84
2023/12/04 03:16:40;;;;;;;0.80;0.80;;;-3.30;99.90;;;;;;5051041;28;20224;-84
2023/12/04 03:19:06;;;;;;;6.53;1.67;;;-3.20;99.90;;;;;;5047396;28;20213;-85
2023/12/04 03:21:32;;;;;;;3.87;2.03;;;;;;;;;;5051288;28;20788;-82
2023/12/04 03:23:57;;;;;;;6.25;3.10;;;-3.20;99.90;;;;;;5068184;28;20212;-84
2023/12/04 03:26:23;;;;;;;4.30;3.47;;;-3.30;99.90;;;;;;5050844;28;20476;-82
2023/12/04 03:28:48;;;;;;;3.13;2.20;;;-3.30;99.90;;;;;;5072571;28;20261;-86
2023/12/04 03:31:14;;;;;;;1.87;1.70;;;;;;;;;;5050234;28;20265;-82
2023/12/04 03:33:40;;;;;;;6.63;2.27;;;-3.10;99.90;;;;;;5058621;28;20183;-84
2023/12/04 03:36:06;;;;;;;2.90;1.97;;;-3.40;99.90;;;;;;5057975;28;20447;-83
2023/12/04 03:38:32;;;;;;;2.80;1.55;;;-3.40;99.90;;;;;;5073444;28;20463;-84
2023/12/04 03:40:58;;;;;;;3.20;2.90;;;;;;;;;;5055356;28;20238;-83
2023/12/04 03:43:23;;;;;;;10.50;3.80;;;-3.30;99.90;;;;;;5060041;28;20185;-82
2023/12/04 03:45:49;;;;;;;2.13;2.03;;;-3.30;99.90;;;;;;5089415;28;20447;-86
2023/12/04 03:48:15;;;;;;;1.60;0.73;;;;;;;;;;5070889;28;20188;-81
2023/12/04 03:50:40;;;;;;;1.80;1.60;;;-3.10;99.90;;;;;;5069369;28;20219;-82
2023/12/04 03:53:06;;;;;;;3.30;3.07;;;-3.10;99.90;;;;;;5063949;28;20439;-85
2023/12/04 03:55:31;;;;;;;4.17;1.87;;;-3.00;99.90;;;;;;5066171;28;20368;-85
2023/12/04 03:57:58;;;;;;;2.00;1.90;;;;;;;;;;5071607;28;20693;-83
2023/12/04 04:00:23;;;;;;;2.92;1.95;;;-2.90;99.90;;;;;;5084168;28;20192;-82
2023/12/04 04:02:49;;;;;;;1.73;1.63;;;-2.80;99.90;;;;;;5072406;28;20191;-85
2023/12/04 04:05:15;;;;;;;3.57;2.43;;;;;;;;;;5052167;28;20196;-84
2023/12/04 04:07:41;;;;;;;4.68;2.38;;;-2.90;99.90;;;;;;5051849;28;20199;-82
2023/12/04 04:10:07;;;;;;;2.97;2.10;;;-2.90;99.90;;;;;;5069037;28;20205;-83
2023/12/04 04:12:33;;;;;;;10.63;1.38;;;-2.80;99.90;;;;;;5062432;28;20196;-83
2023/12/04 04:14:58;;;;;;;0.80;0.80;;;-2.80;99.90;;;;;;5059516;28;20192;-83
2023/12/04 04:17:26;;;;;;;2.73;2.50;;;;;;;;;;5048152;28;20217;-83
2023/12/04 04:19:52;;;;;;;3.55;3.03;;;-2.70;99.90;;;;;;5072798;28;20181;-86
2023/12/04 04:22:18;;;;;;;4.65;1.27;;;-2.70;99.90;;;;;;5040327;28;20180;-83
2023/12/04 04:24:44;;;;;;;1.13;1.10;;;;;;;;;;5063253;28;20196;-83
2023/12/04 04:27:09;;;;;;;2.30;2.07;;;-2.80;99.90;;;;;;5074894;28;20450;-85
2023/12/04 04:29:34;;;;;;;4.63;1.20;;;-2.80;99.90;;;;;;5049908;28;20443;-84
2023/12/04 04:32:00;;;;;;;3.20;2.27;;;-2.80;99.90;;;;;;5066113;28;20209;-84
2023/12/04 04:34:26;;;;;;;3.60;3.00;;;-2.80;99.90;;;;;;5062083;28;20179;-84
2023/12/04 04:36:51;;;;;;;1.60;1.03;;;-2.80;99.90;;;;;;5067162;28;20189;-83
2023/12/04 04:39:17;;;;;;;0.80;0.80;;;-2.70;99.90;;;;;;5056530;28;20503;-85
2023/12/04 04:41:44;;;;;;;2.77;0.90;;;-2.80;99.90;;;;;;5054075;28;20220;-84
2023/12/04 04:44:09;;;;;;;2.15;1.95;;;-2.80;99.90;;;;;;5060454;28;20769;-83
2023/12/04 04:46:35;;;;;;;2.30;1.27;;;;;;;;;;5061620;28;20185;-85
2023/12/04 04:49:02;;;;;;;1.43;1.07;;;-2.70;99.90;;;;;;5060467;28;20185;-82
2023/12/04 04:51:29;;;;;;;2.00;0.95;;;;;;;;;;5038172;28;20469;-84
2023/12/04 04:53:55;;;;;;;2.33;2.15;;;;;;;;;;5045711;28;20188;-85
2023/12/04 04:56:21;;;;;;;7.18;1.83;;;-2.70;99.90;;;;;;5066568;28;20192;-85
2023/12/04 04:58:46;;;;;;;1.03;1.00;;;-2.70;99.90;;;;;;5050341;28;20368;-83
2023/12/04 05:01:12;;;;;;;4.47;1.23;;;-2.70;99.90;;;;;;5065812;28;20212;-83
2023/12/04 05:03:37;;;;;;;0.60;0.60;;;-2.70;99.90;;;;;;5058397;28;20189;-84
2023/12/04 05:06:05;;;;;;;0.77;0.73;;;-2.60;99.90;;;;;;5071504;28;20188;-85
2023/12/04 05:08:31;;;;;;;1.00;0.85;;;;;;;;;;5057416;28;20196;-85
2023/12/04 05:10:57;;;;;;;9.50;2.70;;;-2.60;99.90;;;;;;5061788;28;20295;-84
2023/12/04 05:13:22;;;;;;;1.03;0.60;;;-2.60;99.90;;;;;;5054528;28;20429;-82
2023/12/04 05:15:48;;;;;;;7.30;1.43;;;-1.60;99.90;;;;;;5079123;28;20204;-85
2023/12/04 05:18:14;;;;;;;7.33;1.57;;;;;;;;;;5064388;28;20211;-84
2023/12/04 05:20:39;;;;;;;5.05;2.00;;;-2.60;99.90;;;;;;5051310;28;20204;-84
2023/12/04 05:23:05;;;;;;;1.50;1.40;;;;;;;;;;5052788;28;20188;-84
2023/12/04 05:25:31;;;;;;;3.27;2.60;;;-2.60;99.90;;;;;;5068032;28;20201;-84
2023/12/04 05:27:56;;;;;;;3.43;2.43;;;-2.60;99.90;;;;;;5054561;28;20463;-83
2023/12/04 05:30:22;;;;;;;4.07;2.67;;;-2.50;99.90;;;;;;5050321;28;20204;-85
2023/12/04 05:32:47;;;;;;;1.57;1.10;;;-2.50;99.90;;;;;;5054810;28;20262;-82
2023/12/04 05:35:15;;;;;;;1.80;0.80;;;-2.50;99.90;;;;;;5047417;28;22874;-83
2023/12/04 05:37:41;;;;;;;7.63;3.13;;;;;;;;;;5061286;28;20237;-84
2023/12/04 05:40:07;;;;;;;1.53;1.43;;;-2.50;99.90;;;;;;5054034;28;20223;-83
2023/12/04 05:42:33;;;;;;;1.40;1.00;;;-2.50;99.90;;;;;;5061706;28;20446;-83
2023/12/04 05:45:00;;;;;;;3.90;1.87;;;-2.50;99.90;;;;;;5044380;28;20213;-84
2023/12/04 05:47:26;;;;;;;3.42;1.52;;;-2.60;99.90;;;;;;5067526;28;20189;-84
2023/12/04 05:49:52;;;;;;;0.70;0.70;;;-2.60;99.90;;;;;;5062999;28;20232;-84
2023/12/04 05:52:18;;;;;;;2.58;1.80;;;;;;;;;;5057439;28;20188;-84
2023/12/04 05:54:44;;;;;;;6.70;3.00;;;-2.50;99.90;;;;;;5052615;28;20183;-82
2023/12/04 05:57:16;;;;;;;3.97;1.27;;;-2.50;99.90;;;;;;5072343;28;20531;-81
2023/12/04 05:59:42;;;;;;;2.33;2.15;;;-2.50;99.90;;;;;;5092213;28;20320;-82
2023/12/04 06:02:08;;;;;;;0.60;0.60;;;;;;;;;;5078198;28;20460;-84
2023/12/04 06:04:33;;;;;;;4.60;3.00;;;-2.50;99.90;;;;;;5073762;28;20267;-84
2023/12/04 06:07:01;;;;;;;6.03;3.13;;;-2.60;99.90;;;;;;5041819;28;20449;-84
2023/12/04 06:09:26;;;;;;;0.75;0.75;;;-2.60;99.90;;;;;;5064560;28;21590;-84
2023/12/04 06:11:51;;;;;;;4.83;2.43;;;-2.60;99.90;;;;;;5043176;28;21014;-82
2023/12/04 06:14:17;;;;;;;5.90;4.57;;;;;;;;;;5045808;28;20184;-85
2023/12/04 06:16:43;;;;;;;4.60;3.73;;;-2.70;99.90;;;;;;5059698;28;20188;-85
2023/12/04 06:19:08;;;;;;;1.87;1.57;;;-2.70;99.90;;;;;;5055201;28;20552;-86
2023/12/04 06:21:34;;;;;;;2.30;1.80;;;-2.80;99.90;;;;;;5062368;28;20208;-84
2023/12/04 06:24:00;;;;;;;1.47;1.40;;;-2.70;99.90;;;;;;5079130;28;20288;-87
2023/12/04 06:26:26;;;;;;;5.13;2.97;;;;;;;;;;5053676;28;20185;-85
2023/12/04 06:28:52;;;;;;;2.63;2.35;;;-2.80;99.90;;;;;;5069850;28;20189;-81
2023/12/04 06:31:17;;;;;;;2.10;1.57;;;-2.80;99.90;;;;;;5082974;28;20699;-85
2023/12/04 06:33:44;;;;;;;4.43;2.67;;;-2.90;99.90;;;;;;5068281;28;20188;-85
2023/12/04 06:36:12;;;;;;;3.58;3.28;;;-3.10;99.90;;;;;;5058129;28;21312;-82
2023/12/04 06:38:40;;;;;;;2.17;1.40;;;-3.20;99.90;;;;;;5059467;28;20219;-83
2023/12/04 06:41:06;;;;;;;3.60;3.30;;;-2.50;99.90;;;;;;5050242;28;20192;-83
2023/12/04 06:43:32;;;;;;;6.07;2.53;;;-3.10;99.90;;;;;;5053406;28;20192;-86
2023/12/04 06:45:58;;;;;;;11.60;2.25;;;;;;;;;;5059310;28;20251;-84
2023/12/04 06:48:25;;;;;;;2.53;2.33;;;-2.90;99.90;;;;;;5060887;28;20649;-82
2023/12/04 06:50:50;;;;;;;10.95;3.63;;;-2.90;99.90;;;;;;5069734;28;20227;-83
2023/12/04 06:53:16;;;;;;;6.13;2.50;;;-2.90;99.90;;;;;;5080823;28;20192;-84
2023/12/04 06:55:41;;;;;;;1.37;1.23;;;-2.80;99.90;;;;;;5048792;28;20196;-82
2023/12/04 06:58:07;;;;;;;2.13;1.43;;;-2.80;99.90;;;;;;5057134;28;20219;-85
2023/12/04 07:00:32;;;;;;;2.17;1.93;;;-2.70;99.90;;;;;;5053126;28;20212;-85
2023/12/04 07:02:58;;;;;;;5.50;2.17;;;-2.80;99.90;;;;;;5045058;28;20208;-83
2023/12/04 07:05:24;;;;;;;3.70;2.87;;;-2.80;99.90;;;;;;5048513;28;20248;-81
2023/12/04 07:07:50;;;;;;;3.45;2.08;;;-2.80;99.90;;;;;;5051364;28;20188;-85
2023/12/04 07:10:16;;;;;;;1.67;1.57;;;-4.20;99.90;;;;;;5046690;28;20718;-83
2023/12/04 07:12:42;;;;;;;1.73;1.50;;;-2.70;99.90;;;;;;5063292;28;20199;-85
2023/12/04 07:15:08;;;;;;;6.95;1.98;;;-2.40;99.90;;;;;;5051250;28;20292;-83
2023/12/04 07:17:35;;;;;;;2.03;1.80;;;-2.50;99.90;;;;;;5057514;28;20303;-84
2023/12/04 07:20:02;;;;;;;1.30;1.20;;;-2.70;99.90;;;;;;5042143;28;21665;-85
2023/12/04 07:22:28;;;;;;;4.63;1.00;;;-2.70;99.90;;;;;;5045616;28;20193;-84
2023/12/04 07:24:53;;;;;;;2.90;2.60;;;-2.80;99.90;;;;;;5051875;28;20311;-85
2023/12/04 07:27:19;;;;;;;3.03;1.70;;;;;;;;;;5044884;28;20910;-83
2023/12/04 07:29:46;;;;;;;1.00;0.93;;;-2.70;99.90;;;;;;5065204;28;20203;-83
2023/12/04 07:32:11;;;;;;;2.53;2.10;;;-2.60;99.90;;;;;;5050518;28;20461;-85
2023/12/04 07:34:37;;;;;;;5.60;1.83;;;-0.90;99.90;;;;;;5051589;28;20188;-85
2023/12/04 07:37:03;;;;;;;3.00;1.97;;;-2.60;99.90;;;;;;5054728;28;20197;-85
2023/12/04 07:39:29;;;;;;;1.60;1.37;;;-2.60;99.90;;;;;;5054599;28;20197;-84
2023/12/04 07:41:55;;;;;;;0.82;0.80;;;-2.60;99.90;;;;;;5075158;28;20216;-84
2023/12/04 07:44:20;;;;;;;19.87;6.60;;;-2.50;99.90;;;;;;5072701;28;20460;-82
2023/12/04 07:46:46;;;;;;;4.87;3.60;;;-2.50;99.90;;;;;;5064660;28;20280;-84
2023/12/04 07:49:12;;;;;;;15.33;6.40;;;-2.40;99.90;;;;;;5040108;28;20194;-84
2023/12/04 07:51:37;;;;;;;3.90;2.70;;;;;;;;;;5058661;28;20466;-82
2023/12/04 07:54:04;;;;;;;5.30;2.23;;;-2.30;99.90;;;;;;5074315;28;20668;-84
2023/12/04 07:56:30;;;;;;;10.27;5.20;;;-2.20;99.90;;;;;;5056215;28;20455;-83
2023/12/04 07:58:55;;;;;;;12.47;4.93;;;-2.10;99.90;;;;;;5042175;28;20811;-82
2023/12/04 08:01:22;;;;;;;1.83;1.73;;;-2.00;99.90;;;;;;5062783;28;20197;-82
2023/12/04 08:03:48;;;;;;;1.45;1.35;;;-2.00;99.90;;;;;;5064278;28;20188;-83
2023/12/04 08:06:15;;;;;;;2.30;1.70;;;;;;;;;;5069278;28;20189;-84
2023/12/04 08:08:41;;;;;;;2.10;1.95;;;-2.10;99.90;;;;;;5055926;28;20277;-85
2023/12/04 08:11:09;;;;;;;1.33;1.20;;;-2.10;99.90;;;;;;5041868;28;21928;-83
2023/12/04 08:13:35;;;;;;;8.15;1.60;;;-2.10;99.90;;;;;;5050135;28;20451;-84
2023/12/04 08:16:01;;;;;;;1.97;1.03;;;;;;;;;;5049237;28;20866;-85
2023/12/04 08:18:27;;;;;;;1.02;0.93;;;;;;;;;;5053615;28;20271;-84
2023/12/04 08:20:53;;;;;;;1.60;0.77;;;-1.90;99.90;;;;;;5035386;28;20285;-82
2023/12/04 08:23:18;;;;;;;4.90;3.13;;;-1.80;99.90;;;;;;5050387;28;20485;-82
2023/12/04 08:25:44;;;;;;;0.70;0.70;;;-1.80;99.90;;;;;;5047046;28;20595;-83
2023/12/04 08:28:09;;;;;;;7.63;1.43;;;-1.70;99.90;;;;;;5052897;28;20215;-84
2023/12/04 08:30:35;;;;;;;4.80;2.77;;;-1.60;99.90;;;;;;5054991;28;20201;-82
2023/12/04 08:33:00;;;;;;;3.30;1.80;;;-1.50;99.90;;;;;;5051835;28;20191;-84
2023/12/04 08:35:26;;;;;;;1.33;1.20;;;-1.40;99.90;;;;;;5049766;28;20196;-84
2023/12/04 08:37:52;;;;;;;2.77;1.03;;;-1.20;99.90;;;;;;5048706;28;20223;-84
2023/12/04 08:40:17;;;;;;;2.30;0.90;;;-1.20;99.90;;;;;;5069176;28;20205;-83
2023/12/04 08:42:44;;;;;;;2.40;2.00;;;-1.20;99.90;;;;;;5054042;28;20187;-85
2023/12/04 08:45:11;;;;;;;1.92;1.20;;;;;;;;;;5069007;28;20221;-83
2023/12/04 08:47:36;;;;;;;3.33;2.17;;;-1.30;99.90;;;;;;5058325;28;20193;-86
2023/12/04 08:50:02;;;;;;;2.07;1.93;;;-1.50;99.90;;;;;;5041855;28;20191;-83
2023/12/04 08:52:27;;;;;;;1.80;0.83;;;-1.50;99.90;;;;;;5063731;28;20212;-84
2023/12/04 08:54:54;;;;;;;4.93;1.90;;;;;;;;;;5066810;28;20199;-83
2023/12/04 08:57:19;;;;;;;3.20;2.33;;;-1.50;99.90;;;;;;5039528;28;20748;-83
2023/12/04 08:59:45;;;;;;;6.20;2.70;;;-1.30;99.90;;;;;;5069898;28;20172;-81
2023/12/04 09:02:11;;;;;;;1.27;1.17;;;-1.10;99.90;;;;;;5091151;28;20210;-82
2023/12/04 09:04:37;;;;;;;2.47;2.23;;;-0.90;99.90;;;;;;5051180;28;20188;-84
2023/12/04 09:07:03;;;;;;;2.70;2.60;;;-0.80;99.90;;;;;;5054667;28;20184;-85
2023/12/04 09:09:28;;;;;;;1.25;0.95;;;-0.80;99.90;;;;;;5040919;28;20214;-82
2023/12/04 09:11:54;;;;;;;2.50;2.13;;;-0.80;99.90;;;;;;5054177;28;20203;-83
2023/12/04 09:14:19;;;;;;;5.60;2.30;;;-0.90;99.90;;;;;;5061520;28;20813;-83
2023/12/04 09:16:45;;;;;;;2.43;2.30;;;-0.80;99.90;;;;;;5063425;28;20306;-82
2023/12/04 09:19:10;;;;;;;1.97;1.87;;;-0.80;99.90;;;;;;5065298;28;20585;-82
2023/12/04 09:21:37;;;;;;;1.93;1.20;;;-0.60;99.90;;;;;;5049625;28;20227;-84
2023/12/04 09:24:02;;;;;;;4.43;2.85;;;-0.50;99.90;;;;;;5040066;28;20295;-83
2023/12/04 09:26:28;;;;;;;1.27;1.17;;;-0.50;99.90;;;;;;5038627;28;20622;-83
2023/12/04 09:28:54;;;;;;;2.50;1.83;;;;;;;;;;5041339;28;20192;-82
2023/12/04 09:31:19;;;;;;;3.33;3.03;;;-0.40;99.90;;;;;;5063628;28;20222;-83
2023/12/04 09:33:47;;;;;;;1.03;1.03;;;-0.30;99.90;;;;;;5058315;28;20454;-82
2023/12/04 09:36:12;;;;;;;2.58;2.38;;;-0.40;99.90;;;;;;5059794;28;20184;-83
2023/12/04 09:38:38;;;;;;;1.67;1.47;;;;;;;;;;5048471;28;20212;-85
2023/12/04 09:41:06;;;;;;;4.32;1.52;;;-0.50;99.90;;;;;;5056269;28;20340;-84
2023/12/04 09:43:32;;;;;;;3.97;2.00;;;-0.40;99.90;;;;;;5054845;28;20180;-85
2023/12/04 09:45:59;;;;;;;3.67;2.40;;;-0.20;99.90;;;;;;5041407;28;20192;-83
2023/12/04 09:48:26;;;;;;;1.35;1.25;;;-0.30;99.90;;;;;;5057579;28;20797;-83
2023/12/04 09:50:52;;;;;;;2.08;1.50;;;-0.20;99.90;;;;;;5055598;28;20713;-83
2023/12/04 09:53:18;;;;;;;1.42;1.33;;;-0.10;99.90;;;;;;5058108;28;20181;-84
2023/12/04 09:55:43;;;;;;;2.97;2.00;;;0.00;99.90;;;;;;5057731;28;20190;-84
2023/12/04 09:58:14;;;;;;;6.40;1.57;;;0.10;99.90;;;;;;5071228;28;20295;-84
2023/12/04 10:00:40;;;;;;;2.70;2.45;;;;;;;;;;5039244;28;20469;-86
2023/12/04 10:03:06;;;;;;;5.30;2.38;;;0.40;99.90;;;;;;5066222;28;20186;-82
2023/12/04 10:05:33;;;;;;;8.68;4.13;;;0.60;99.90;;;;;;5057732;28;20252;-83
2023/12/04 10:07:58;;;;;;;2.03;1.92;;;0.70;99.90;;;;;;5061642;28;20184;-86
2023/12/04 10:10:24;;;;;;;9.73;4.50;;;0.60;99.90;;;;;;5041862;28;20262;-82
2023/12/04 10:12:50;;;;;;;2.73;1.93;;;0.70;99.90;;;;;;5075122;28;20221;-84
2023/12/04 10:15:16;;;;;;;5.40;3.40;;;0.70;99.90;;;;;;5090217;28;20190;-83
2023/12/04 10:17:43;;;;;;;2.53;2.43;;;0.80;99.90;;;;;;5076208;28;20216;-85
2023/12/04 10:20:19;;;;;;;6.45;2.50;;;0.60;99.90;;;;;;5050798;28;20195;-83
2023/12/04 10:22:59;;;;;;;5.55;2.17;;;0.90;99.90;;;;;;5077907;28;20173;-83
2023/12/04 10:25:28;;;;;;;8.18;2.40;;;1.00;99.90;;;;;;5050433;28;20184;-84
2023/12/04 10:27:54;;;;;;;7.45;3.90;;;0.90;99.90;;;;;;5046699;28;20192;-83
2023/12/04 10:30:24;;;;;;;7.80;3.40;;;0.60;99.90;;;;;;5073015;28;20197;-84
2023/12/04 10:32:54;;;;;;;4.45;2.78;;;0.70;99.90;;;;;;5076277;28;20445;-83
2023/12/04 10:35:20;;;;;;;4.07;2.83;;;0.60;99.90;;;;;;5065587;28;20274;-86
2023/12/04 10:37:46;;;;;;;8.53;4.23;;;0.70;99.90;;;;;;5069207;28;20293;-84
2023/12/04 10:40:23;;;;;;;2.50;2.30;;;0.60;99.90;;;;;;5057007;28;20422;-84
2023/12/04 10:42:48;;;;;;;2.90;2.45;;;0.60;99.90;;;;;;5055089;28;20184;-83
2023/12/04 10:45:14;;;;;;;3.57;3.27;;;0.60;99.90;;;;;;5062292;28;20205;-83
2023/12/04 10:47:40;;;;;;;3.07;2.63;;;;;;;;;;5068322;28;20179;-84
2023/12/04 10:50:07;;;;;;;1.70;1.60;;;0.40;99.90;;;;;;5068082;28;21229;-81
2023/12/04 10:52:34;;;;;;;10.40;4.63;;;0.30;99.90;;;;;;5060189;28;20508;-82
2023/12/04 10:55:01;;;;;;;4.55;4.07;;;0.10;99.90;;;;;;5073629;28;20200;-82
2023/12/04 10:57:31;;;;;;;6.50;3.58;;;0.30;99.90;;;;;;5055421;28;20204;-84
2023/12/04 11:00:08;;;;;;;4.90;2.00;;;0.60;99.90;;;;;;5054700;28;20172;-83
2023/12/04 11:02:34;;;;;;;2.60;2.22;;;0.60;99.90;;;;;;5065687;28;20180;-82
2023/12/04 11:05:16;;;;;;;6.85;2.85;;;0.70;99.90;;;;;;5060916;28;20183;-82
2023/12/04 11:07:47;;;;;;;3.95;1.88;;;0.60;99.90;;;;;;5058293;28;20199;-82
2023/12/04 11:10:13;;;;;;;5.07;3.15;;;0.80;99.90;;;;;;5050711;28;20181;-84
2023/12/04 11:12:47;;;;;;;7.55;3.05;;;0.80;99.90;;;;;;5053207;28;20211;-85
2023/12/04 11:15:17;;;;;;;4.05;2.50;;;0.90;99.90;;;;;;5047580;28;20572;-83
2023/12/04 11:17:51;;;;;;;3.10;2.28;;;1.10;99.90;;;;;;5065728;28;20221;-83
2023/12/04 11:20:23;;;;;;;7.10;3.60;;;1.10;99.90;;;;;;5053103;28;20200;-84
2023/12/04 11:22:49;;;;;;;5.60;2.80;;;1.00;99.90;;;;;;5065243;28;20213;-83
2023/12/04 11:25:15;;;;;;;9.95;3.40;;;0.70;99.90;;;;;;5065802;28;20200;-84
2023/12/04 11:27:42;;;;;;;2.85;1.23;;;0.60;99.90;;;;;;5067150;28;20283;-82
2023/12/04 11:30:09;;;;;;;2.28;2.00;;;0.40;99.90;;;;;;5069321;28;20178;-81
2023/12/04 11:33:05;;;;;;;3.20;1.48;;;0.40;99.90;;;;;;5054035;28;20219;-84
2023/12/04 11:35:33;;;;;;;5.45;2.70;;;0.40;99.90;;;;;;5035762;28;20198;-84
2023/12/04 11:37:58;;;;;;;7.50;2.42;;;0.50;99.90;;;;;;5045630;28;20213;-83
2023/12/04 11:40:25;;;;;;;11.30;3.90;;;0.30;99.90;;;;;;5044209;28;20210;-85
2023/12/04 11:42:52;;;;;;;12.75;3.13;;;0.30;99.90;;;;;;5074069;28;20169;-83
2023/12/04 11:45:21;;;;;;;12.70;2.03;;;0.30;99.90;;;;;;5062491;28;20179;-82
2023/12/04 11:47:56;;;;;;;4.57;3.58;;;0.30;99.90;;;;;;5047596;28;20697;-85
2023/12/04 11:50:24;;;;;;;6.18;4.90;;;0.40;99.90;;;;;;5044933;28;20203;-85
2023/12/04 11:52:50;;;;;;;3.92;3.60;;;0.50;99.90;;;;;;5067870;28;20176;-84
2023/12/04 11:55:17;;;;;;;10.10;4.57;;;0.80;99.90;;;;;;5043611;28;20200;-87
2023/12/04 11:57:43;;;;;;;7.65;3.22;;;0.80;99.90;;;;;;5055044;28;20503;-86
2023/12/04 12:00:20;;;;;;;9.32;3.90;;;0.80;99.90;;;;;;5061554;28;20188;-85
2023/12/04 12:03:02;;;;;;;6.50;3.33;;;0.80;99.90;;;;;;5060745;28;20978;-83
2023/12/04 12:05:28;;;;;;;6.75;2.83;;;0.80;99.90;;;;;;5070796;28;20280;-83
2023/12/04 12:07:55;;;;;;;4.50;2.67;;;0.30;99.90;;;;;;5061603;28;20199;-84
2023/12/04 12:10:21;;;;;;;3.42;3.17;;;0.60;99.90;;;;;;5058094;28;20242;-83
2023/12/04 12:12:47;;;;;;;13.55;8.55;;;0.50;99.90;;;;;;5078148;28;20209;-82
2023/12/04 12:15:13;;;;;;;3.23;3.03;;;;;;;;;;5053627;28;20192;-83
2023/12/04 12:17:40;;;;;;;2.08;1.85;;;0.30;99.90;;;;;;5058171;28;20526;-84
2023/12/04 12:20:07;;;;;;;2.45;1.77;;;0.00;99.90;;;;;;5065630;28;20188;-84
2023/12/04 12:22:34;;;;;;;3.35;3.08;;;0.00;99.90;;;;;;5048391;28;20192;-84
2023/12/04 12:25:01;;;;;;;1.33;1.10;;;-0.10;99.90;;;;;;5068583;28;20273;-85
2023/12/04 12:27:27;;;;;;;7.75;1.90;;;-0.20;99.90;;;;;;5052279;28;20184;-84
2023/12/04 12:29:52;;;;;;;2.00;1.83;;;-0.40;99.90;;;;;;5044775;28;20222;-84
2023/12/04 12:32:18;;;;;;;2.67;1.43;;;-0.50;99.90;;;;;;5042093;28;20267;-84
2023/12/04 12:34:44;;;;;;;2.30;2.10;;;-0.40;99.90;;;;;;5047891;28;20407;-86
2023/12/04 12:37:09;;;;;;;2.93;2.10;;;-0.40;99.90;;;;;;5036424;28;20220;-85
2023/12/04 12:39:39;;;;;;;2.33;1.05;;;-0.10;99.90;;;;;;5057384;28;20492;-84
2023/12/04 12:42:05;;;;;;;2.15;2.05;;;0.10;99.90;;;;;;5047878;28;20221;-86
2023/12/04 12:44:40;;;;;;;5.28;3.00;;;0.10;99.90;;;;;;5057771;28;20569;-83
2023/12/04 12:47:07;;;;;;;13.15;4.75;;;0.20;99.90;;;;;;5056883;28;20194;-86
2023/12/04 12:49:36;;;;;;;4.22;3.17;;;;;;;;;;5031243;28;20184;-82
2023/12/04 12:52:08;;;;;;;3.75;3.00;;;0.40;99.90;;;;;;5052130;28;20209;-83
2023/12/04 12:54:36;;;;;;;1.85;0.98;;;0.40;99.90;;;;;;5033044;28;20239;-84
2023/12/04 12:57:01;;;;;;;22.15;2.50;;;0.30;99.90;;;;;;5053492;28;20192;-84
2023/12/04 12:59:28;;;;;;;4.47;2.47;;;0.30;99.90;;;;;;5043683;28;20215;-83